Averill Park, New York
Current Conditions -  °F | °C
As of 6:51 PM on Monday 22 Dec 2014 (Local Time) from KALB Reporting Station
Overcast Overcast  
Wind Chill: 34°   Ceiling: 5000
Heat Index: 34°   Visibility: 10mi
Dew Point: 27°   Wind: 3mph
Humidity: 75%   Direction: 330°NNW
Pressure: 30.27"   Gusts: NA
Location:  42.64°N, 73.55°W
Report Text: KALB 222351Z 33003KT 10SM FEW030 SCT039 OVC050 01/M03 A3027 RMK AO2 SLP255 60000 T00111028 10022 20011 56003
Loading
Personal Weather Stations






























Interactive Weather Map New forecast layout! Learn more

10-Day Weather Forecast

Advertisements
Track Severe Weather on mobile